Time;durP1;ratioP1;P1;durP2;ratioP2;P2;SDS_P1;SDS_P2;PMS_P1;PMS_P2;Temp;Humidity;BMP_temperature;BMP_pressure;BME280_temperature;BME280_humidity;BME280_pressure;Samples;Min_cycle;Max_cycle;Signal;HPM_P1;HPM_P2
2023/10/03 00:01:28;;;;;;;;;;;;;;;19.53;64.62;101535.47;5020354;28;20299;-77
2023/10/03 00:04:21;;;;;;;;;;;;;;;19.39;65.56;101528.78;5018671;28;20396;-77
2023/10/03 00:07:13;;;;;;;;;;;;;;;19.35;65.93;101527.88;5016564;28;20303;-76
2023/10/03 00:10:05;;;;;;;;;;;;;;;19.41;65.60;101521.72;5014269;28;20304;-77
2023/10/03 00:12:57;;;;;;;;;;;;;;;19.54;65.18;101519.72;5016341;28;19917;-76
2023/10/03 00:15:49;;;;;;;;;;;;;;;19.41;65.69;101518.97;5015965;28;20287;-77
2023/10/03 00:18:41;;;;;;;;;;;;;;;19.37;65.64;101509.00;5013354;28;20287;-76
2023/10/03 00:21:33;;;;;;;;;;;;;;;19.41;65.48;101502.41;5016618;28;19918;-77
2023/10/03 00:24:25;;;;;;;;;;;;;;;19.45;65.42;101505.31;5015134;28;19917;-76
2023/10/03 00:27:17;;;;;;;;;;;;;;;19.43;65.49;101507.59;5018539;28;19917;-76
2023/10/03 00:30:10;;;;;;;;;;;;;;;19.44;65.35;101501.75;5016052;28;19918;-76
2023/10/03 00:33:04;;;;;;;;;;;;;;;19.40;65.91;101500.03;5013452;28;20384;-77
2023/10/03 00:36:01;;;;;;;;;;;;;;;19.40;65.67;101495.28;5015929;28;19921;-76
2023/10/03 00:38:54;;;;;;;;;;;;;;;19.46;65.29;101496.66;5004022;28;19918;-76
2023/10/03 00:41:46;;;;;;;;;;;;;;;19.44;65.17;101492.66;4993460;28;19922;-75
2023/10/03 00:44:38;;;;;;;;;;;;;;;19.40;65.63;101489.00;5009625;28;19921;-75
2023/10/03 00:47:30;;;;;;;;;;;;;;;19.35;65.46;101492.81;4993655;28;19917;-76
2023/10/03 00:50:22;;;;;;;;;;;;;;;19.34;65.37;101487.66;4993398;28;19921;-76
2023/10/03 00:53:15;;;;;;;;;;;;;;;19.34;65.63;101488.47;4992833;28;20299;-76
2023/10/03 00:56:08;;;;;;;;;;;;;;;19.29;65.86;101483.22;5006517;28;19926;-76
2023/10/03 00:59:01;;;;;;;;;;;;;;;19.29;66.10;101488.72;5005665;28;19917;-76
2023/10/03 01:01:55;;;;;;;;;;;;;;;19.39;66.41;101490.97;4994460;28;19926;-74
2023/10/03 01:04:47;;;;;;;;;;;;;;;19.31;66.43;101488.34;4999398;28;19921;-76
2023/10/03 01:07:39;;;;;;;;;;;;;;;19.27;66.12;101487.47;5018715;28;19918;-76
2023/10/03 01:10:31;;;;;;;;;;;;;;;19.33;65.99;101475.81;4993754;28;19918;-76
2023/10/03 01:13:30;;;;;;;;;;;;;;;19.21;66.26;101479.47;4993526;28;19918;-76
2023/10/03 01:16:31;;;;;;;;;;;;;;;19.24;66.07;101472.44;4993803;28;19929;-77
2023/10/03 01:19:25;;;;;;;;;;;;;;;19.27;65.91;101471.72;4998274;28;20388;-76
2023/10/03 01:22:14;;;;;;;;;;;;;;;19.20;65.92;101460.50;4993684;28;19918;-77
2023/10/03 01:25:11;;;;;;;;;;;;;;;19.24;66.21;101464.19;4994670;28;19918;-76
2023/10/03 01:28:03;;;;;;;;;;;;;;;19.18;66.44;101462.84;5009773;28;19922;-76
2023/10/03 01:30:55;;;;;;;;;;;;;;;19.23;66.14;101457.06;4994953;28;19936;-76
2023/10/03 01:33:47;;;;;;;;;;;;;;;19.15;66.50;101445.03;5006367;28;19918;-75
2023/10/03 01:36:39;;;;;;;;;;;;;;;19.16;66.26;101445.84;4995518;28;19925;-76
2023/10/03 01:39:31;;;;;;;;;;;;;;;19.18;66.11;101451.81;4994115;28;20376;-76
2023/10/03 01:42:23;;;;;;;;;;;;;;;19.10;66.75;101442.53;4996419;28;19925;-76
2023/10/03 01:45:15;;;;;;;;;;;;;;;19.22;65.82;101447.19;4996044;28;19918;-77
2023/10/03 01:48:09;;;;;;;;;;;;;;;19.10;66.56;101445.28;4993202;28;20581;-76
2023/10/03 01:51:02;;;;;;;;;;;;;;;19.03;66.53;101447.09;4996423;28;20005;-77
2023/10/03 01:53:54;;;;;;;;;;;;;;;19.01;66.82;101436.41;4994049;28;19921;-77
2023/10/03 01:56:46;;;;;;;;;;;;;;;18.98;66.80;101436.31;5005259;28;19921;-75
2023/10/03 01:59:35;;;;;;;;;;;;;;;18.97;66.77;101432.75;4998367;28;19918;-76
2023/10/03 02:02:27;;;;;;;;;;;;;;;18.99;66.84;101429.66;5010205;28;19918;-76
2023/10/03 02:05:20;;;;;;;;;;;;;;;19.02;66.84;101428.94;4996569;28;19918;-77
2023/10/03 02:08:15;;;;;;;;;;;;;;;18.86;67.39;101425.34;4998789;28;19918;-76
2023/10/03 02:11:07;;;;;;;;;;;;;;;18.88;67.57;101425.81;4996480;28;19917;-76
2023/10/03 02:13:59;;;;;;;;;;;;;;;18.73;67.55;101425.44;5009646;28;19922;-76
2023/10/03 02:16:51;;;;;;;;;;;;;;;18.64;67.96;101416.53;5010794;28;20380;-77
2023/10/03 02:19:43;;;;;;;;;;;;;;;18.63;68.30;101416.88;5000398;28;19917;-76
2023/10/03 02:22:36;;;;;;;;;;;;;;;18.73;67.71;101413.63;5011518;28;19917;-77
2023/10/03 02:25:36;;;;;;;;;;;;;;;18.62;68.02;101418.84;5009847;28;19929;-76
2023/10/03 02:28:28;;;;;;;;;;;;;;;18.73;67.91;101408.91;4999213;28;19918;-76
2023/10/03 02:31:19;;;;;;;;;;;;;;;18.76;67.69;101405.44;5010968;28;19922;-77
2023/10/03 02:34:12;;;;;;;;;;;;;;;18.81;66.99;101407.13;4995785;28;19951;-76
2023/10/03 02:37:05;;;;;;;;;;;;;;;18.86;66.88;101404.13;4999043;28;19922;-75
2023/10/03 02:39:57;;;;;;;;;;;;;;;18.81;66.89;101398.88;4996462;28;19917;-76
2023/10/03 02:42:50;;;;;;;;;;;;;;;18.71;67.27;101399.38;4997996;28;19918;-76
2023/10/03 02:45:42;;;;;;;;;;;;;;;18.75;67.64;101400.28;5011088;28;19917;-76
2023/10/03 02:48:34;;;;;;;;;;;;;;;18.68;67.71;101400.91;5008619;28;19917;-77
2023/10/03 02:51:26;;;;;;;;;;;;;;;18.58;68.27;101400.63;5012024;28;19926;-76
2023/10/03 02:54:18;;;;;;;;;;;;;;;18.63;67.97;101398.41;4994141;28;19918;-76
2023/10/03 02:57:10;;;;;;;;;;;;;;;18.74;67.26;101391.19;4995539;28;19921;-76
2023/10/03 03:00:02;;;;;;;;;;;;;;;18.63;67.90;101395.66;4995222;28;19917;-76
2023/10/03 03:02:55;;;;;;;;;;;;;;;18.70;67.80;101393.06;5009391;28;19921;-77
2023/10/03 03:05:47;;;;;;;;;;;;;;;18.76;67.25;101391.66;4999167;28;19918;-75
2023/10/03 03:08:42;;;;;;;;;;;;;;;18.82;67.00;101397.72;4997095;28;19918;-77
2023/10/03 03:11:34;;;;;;;;;;;;;;;18.89;66.89;101395.16;5008800;28;19922;-77
2023/10/03 03:14:26;;;;;;;;;;;;;;;18.92;66.68;101391.69;5012229;28;19921;-76
2023/10/03 03:17:21;;;;;;;;;;;;;;;18.91;66.71;101392.03;4997106;28;20308;-78
2023/10/03 03:20:28;;;;;;;;;;;;;;;18.87;66.98;101391.13;5000504;28;19918;-76
2023/10/03 03:23:19;;;;;;;;;;;;;;;18.91;66.70;101386.50;5007707;28;19917;-75
2023/10/03 03:29:20;;;;;;;;;;;;;;;18.94;66.81;101385.81;5018571;28;19922;-78
2023/10/03 03:32:11;;;;;;;;;;;;;;;18.73;67.15;101386.88;5015337;28;19917;-75
2023/10/03 03:35:04;;;;;;;;;;;;;;;18.56;68.10;101383.63;5020984;28;19925;-77
2023/10/03 03:37:59;;;;;;;;;;;;;;;18.65;67.54;101382.31;5016980;28;19917;-78
2023/10/03 03:40:56;;;;;;;;;;;;;;;18.70;67.10;101381.25;5019410;28;19918;-77
2023/10/03 03:43:48;;;;;;;;;;;;;;;18.66;67.12;101375.66;5015216;28;20396;-78
2023/10/03 03:46:40;;;;;;;;;;;;;;;18.38;67.78;101381.19;5015838;28;19918;-76
2023/10/03 03:49:32;;;;;;;;;;;;;;;18.33;67.81;101381.44;5018532;28;19918;-74
2023/10/03 03:52:24;;;;;;;;;;;;;;;18.18;67.89;101376.69;5015806;28;19917;-77
2023/10/03 03:55:17;;;;;;;;;;;;;;;18.25;68.23;101371.34;5014487;28;19925;-75
2023/10/03 03:58:12;;;;;;;;;;;;;;;18.42;67.50;101374.97;5018311;28;20383;-77
2023/10/03 04:01:04;;;;;;;;;;;;;;;18.55;66.95;101371.81;5015640;28;20071;-75
2023/10/03 04:03:59;;;;;;;;;;;;;;;18.51;67.29;101367.31;5014269;28;19917;-78
2023/10/03 04:06:51;;;;;;;;;;;;;;;18.52;66.62;101364.22;5012044;28;19917;-76
2023/10/03 04:09:43;;;;;;;;;;;;;;;18.57;66.16;101365.94;5010086;28;19922;-77
2023/10/03 04:12:40;;;;;;;;;;;;;;;18.59;66.16;101367.19;5009352;28;19922;-77
2023/10/03 04:15:32;;;;;;;;;;;;;;;18.44;66.78;101359.66;5014527;28;19922;-77
2023/10/03 04:18:29;;;;;;;;;;;;;;;18.47;67.09;101355.41;5013446;28;19918;-76
2023/10/03 04:21:26;;;;;;;;;;;;;;;18.37;67.03;101352.03;5004742;28;19918;-77
2023/10/03 04:24:18;;;;;;;;;;;;;;;18.49;66.80;101359.41;5006037;28;20388;-77
2023/10/03 04:27:11;;;;;;;;;;;;;;;18.13;68.30;101356.84;5014191;28;19917;-75
2023/10/03 04:30:07;;;;;;;;;;;;;;;18.03;68.65;101360.88;5004328;28;19918;-78
2023/10/03 04:32:59;;;;;;;;;;;;;;;18.06;68.71;101364.91;5004217;28;19917;-76
2023/10/03 04:35:51;;;;;;;;;;;;;;;17.99;69.12;101356.44;5000787;28;19921;-76
2023/10/03 04:38:40;;;;;;;;;;;;;;;17.90;69.17;101360.13;5016311;28;19921;-76
2023/10/03 04:41:32;;;;;;;;;;;;;;;17.77;69.76;101355.03;4998387;28;19918;-77
2023/10/03 04:44:24;;;;;;;;;;;;;;;17.94;68.76;101361.03;4996437;28;19929;-75
2023/10/03 04:47:14;;;;;;;;;;;;;;;18.00;68.90;101364.34;5002082;28;20404;-76
2023/10/03 04:50:03;;;;;;;;;;;;;;;18.17;68.13;101363.25;5001385;28;19918;-75
2023/10/03 04:52:59;;;;;;;;;;;;;;;18.26;67.45;101366.66;5006785;28;19917;-77
2023/10/03 04:55:51;;;;;;;;;;;;;;;18.27;67.17;101363.56;5018830;28;19922;-76
2023/10/03 04:58:43;;;;;;;;;;;;;;;18.36;67.03;101358.69;5016666;28;19922;-77
2023/10/03 05:01:35;;;;;;;;;;;;;;;18.38;66.44;101356.41;5014367;28;19917;-77
2023/10/03 05:04:27;;;;;;;;;;;;;;;18.39;66.72;101370.94;5018664;28;19918;-77
2023/10/03 05:07:17;;;;;;;;;;;;;;;18.49;66.13;101367.66;5016052;28;20295;-77
2023/10/03 05:10:06;;;;;;;;;;;;;;;18.25;66.83;101368.59;5013265;28;19918;-77
2023/10/03 05:12:58;;;;;;;;;;;;;;;18.25;67.02;101367.78;5015414;28;19917;-78
2023/10/03 05:15:50;;;;;;;;;;;;;;;18.25;66.67;101376.84;5012572;28;19922;-78
2023/10/03 05:18:41;;;;;;;;;;;;;;;18.00;67.58;101377.31;5006899;28;20300;-79
2023/10/03 05:21:36;;;;;;;;;;;;;;;17.81;68.75;101370.47;5007877;28;19976;-78
2023/10/03 05:24:29;;;;;;;;;;;;;;;17.62;69.85;101378.56;5008855;28;20319;-77
2023/10/03 05:27:21;;;;;;;;;;;;;;;17.61;69.22;101379.69;5016686;28;20292;-78
2023/10/03 05:30:13;;;;;;;;;;;;;;;17.60;69.68;101385.53;5003942;28;19918;-78
2023/10/03 05:33:05;;;;;;;;;;;;;;;17.65;69.61;101385.31;5007552;28;19925;-77
2023/10/03 05:35:57;;;;;;;;;;;;;;;17.71;69.05;101373.72;5012388;28;20376;-76
2023/10/03 05:38:46;;;;;;;;;;;;;;;17.82;68.58;101376.78;5018819;28;19917;-77
2023/10/03 05:41:36;;;;;;;;;;;;;;;17.99;67.86;101384.75;5015995;28;19917;-77
2023/10/03 05:44:28;;;;;;;;;;;;;;;18.03;67.54;101384.88;5012495;28;19980;-76
2023/10/03 05:47:20;;;;;;;;;;;;;;;18.05;68.06;101388.06;5017424;28;19921;-77
2023/10/03 05:50:11;;;;;;;;;;;;;;;18.15;67.42;101393.06;5021015;28;19918;-75
2023/10/03 05:53:03;;;;;;;;;;;;;;;18.33;67.07;101386.13;5018614;28;20303;-78
2023/10/03 05:55:55;;;;;;;;;;;;;;;18.29;67.32;101387.97;5017178;28;19925;-78
2023/10/03 05:58:47;;;;;;;;;;;;;;;18.28;67.84;101391.91;5021469;28;19917;-77
2023/10/03 06:01:38;;;;;;;;;;;;;;;18.32;67.59;101390.03;5018054;28;19917;-77
2023/10/03 06:04:30;;;;;;;;;;;;;;;18.41;67.58;101381.59;5015180;28;19917;-76
2023/10/03 06:07:22;;;;;;;;;;;;;;;18.65;66.42;101387.00;5019933;28;19922;-77
2023/10/03 06:10:15;;;;;;;;;;;;;;;18.80;66.43;101391.75;5018346;28;19917;-76
2023/10/03 06:13:09;;;;;;;;;;;;;;;18.89;65.81;101391.59;5019041;28;19917;-77
2023/10/03 06:16:02;;;;;;;;;;;;;;;18.86;66.56;101401.34;5018607;28;19921;-77
2023/10/03 06:18:54;;;;;;;;;;;;;;;19.00;66.35;101403.66;5016393;28;19918;-77
2023/10/03 06:21:46;;;;;;;;;;;;;;;19.24;65.54;101400.75;5020513;28;19917;-78
2023/10/03 06:24:38;;;;;;;;;;;;;;;19.12;66.19;101401.63;5017891;28;19918;-77
2023/10/03 06:27:30;;;;;;;;;;;;;;;19.26;66.36;101409.44;5015563;28;19918;-77
2023/10/03 06:30:22;;;;;;;;;;;;;;;19.28;66.44;101409.91;5022301;28;20299;-77
2023/10/03 06:33:14;;;;;;;;;;;;;;;19.74;65.16;101407.47;5015713;28;19918;-77
2023/10/03 06:36:06;;;;;;;;;;;;;;;19.61;65.81;101415.03;5019781;28;19925;-77
2023/10/03 06:38:58;;;;;;;;;;;;;;;19.41;66.76;101413.34;5017773;28;19917;-79
2023/10/03 06:41:50;;;;;;;;;;;;;;;19.64;66.34;101419.84;5014791;28;20380;-79
2023/10/03 06:44:43;;;;;;;;;;;;;;;19.79;65.91;101415.44;5005726;28;19918;-77
2023/10/03 06:47:34;;;;;;;;;;;;;;;19.86;66.20;101416.41;4997439;28;19917;-78
2023/10/03 06:50:26;;;;;;;;;;;;;;;19.86;66.36;101404.59;5014501;28;19921;-78
2023/10/03 06:53:16;;;;;;;;;;;;;;;19.95;66.17;101407.94;5004710;28;19918;-78
2023/10/03 06:56:08;;;;;;;;;;;;;;;20.13;65.42;101409.09;4997591;28;19955;-79
2023/10/03 06:59:00;;;;;;;;;;;;;;;20.07;66.48;101416.88;5007887;28;20383;-78
2023/10/03 07:01:52;;;;;;;;;;;;;;;20.26;65.58;101410.56;5004427;28;20648;-78
2023/10/03 07:04:44;;;;;;;;;;;;;;;20.19;66.07;101409.59;5000999;28;19921;-78
2023/10/03 07:07:33;;;;;;;;;;;;;;;20.40;64.86;101410.06;5005460;28;19921;-78
2023/10/03 07:10:25;;;;;;;;;;;;;;;20.37;65.65;101406.06;5008677;28;19918;-78
2023/10/03 07:13:17;;;;;;;;;;;;;;;20.52;65.47;101409.13;5007101;28;20332;-78
2023/10/03 07:16:09;;;;;;;;;;;;;;;20.39;65.55;101409.28;5008353;28;19921;-79
2023/10/03 07:19:00;;;;;;;;;;;;;;;20.67;65.02;101399.94;5006572;28;19917;-78
2023/10/03 07:21:58;;;;;;;;;;;;;;;21.25;61.98;101406.91;5008136;28;20332;-79
2023/10/03 07:24:51;;;;;;;;;;;;;;;21.17;61.96;101407.16;5004644;28;19918;-79
2023/10/03 07:27:46;;;;;;;;;;;;;;;21.61;61.14;101404.69;4994714;28;19921;-79
2023/10/03 07:30:35;;;;;;;;;;;;;;;21.60;60.86;101405.84;4997922;28;19922;-80
2023/10/03 07:33:25;;;;;;;;;;;;;;;20.99;60.66;101403.25;5004585;28;19917;-79
2023/10/03 07:36:14;;;;;;;;;;;;;;;20.80;61.41;101412.41;5000168;28;20387;-80
2023/10/03 07:39:08;;;;;;;;;;;;;;;20.73;62.33;101417.78;4997505;28;19922;-78
2023/10/03 07:42:00;;;;;;;;;;;;;;;20.75;63.49;101418.25;4994518;28;19918;-79
2023/10/03 07:44:53;;;;;;;;;;;;;;;20.75;63.61;101427.34;5004858;28;19917;-80
2023/10/03 07:47:45;;;;;;;;;;;;;;;20.71;63.42;101428.44;5001825;28;19917;-82
2023/10/03 07:50:40;;;;;;;;;;;;;;;20.98;62.44;101424.56;5005480;28;19921;-80
2023/10/03 07:53:36;;;;;;;;;;;;;;;21.06;62.33;101429.06;5004645;28;19917;-80
2023/10/03 07:56:33;;;;;;;;;;;;;;;21.14;62.34;101430.81;5005499;28;19922;-82
2023/10/03 07:59:25;;;;;;;;;;;;;;;21.36;61.76;101429.22;4999155;28;19918;-80
2023/10/03 08:02:12;;;;;;;;;;;;;;;21.34;61.25;101426.81;4998237;28;19918;-80
2023/10/03 08:05:02;;;;;;;;;;;;;;;21.26;61.05;101421.53;5004810;28;20307;-80
2023/10/03 08:07:55;;;;;;;;;;;;;;;21.28;61.75;101425.50;4998295;28;19918;-80
2023/10/03 08:10:48;;;;;;;;;;;;;;;21.45;61.42;101423.41;4996982;28;19918;-81
2023/10/03 08:13:41;;;;;;;;;;;;;;;21.54;60.99;101427.50;4993555;28;19918;-80
2023/10/03 08:16:34;;;;;;;;;;;;;;;21.65;61.80;101430.44;4997340;28;19921;-82
2023/10/03 08:19:24;;;;;;;;;;;;;;;22.01;60.13;101434.53;4995115;28;20384;-80
2023/10/03 08:22:14;;;;;;;;;;;;;;;21.82;59.96;101432.69;5005381;28;20211;-80
2023/10/03 08:25:06;;;;;;;;;;;;;;;21.86;60.32;101435.47;5014474;28;19922;-81
2023/10/03 08:27:55;;;;;;;;;;;;;;;21.83;60.00;101433.47;5013905;28;19917;-80
2023/10/03 08:30:43;;;;;;;;;;;;;;;21.68;60.75;101430.50;5017911;28;20304;-82
2023/10/03 08:33:36;;;;;;;;;;;;;;;21.74;60.76;101430.97;5014221;28;19918;-80
2023/10/03 08:36:30;;;;;;;;;;;;;;;21.92;59.99;101432.03;5013608;28;19922;-80
2023/10/03 08:39:23;;;;;;;;;;;;;;;21.94;60.01;101426.91;5016935;28;20384;-80
2023/10/03 08:42:15;;;;;;;;;;;;;;;22.37;58.92;101427.47;5014518;28;19925;-81
2023/10/03 08:45:19;;;;;;;;;;;;;;;22.30;59.58;101435.72;5012756;28;19918;-81
2023/10/03 08:48:12;;;;;;;;;;;;;;;22.27;59.17;101433.69;5015257;28;19921;-81
2023/10/03 08:51:03;;;;;;;;;;;;;;;22.39;58.80;101437.03;5013042;28;19917;-81
2023/10/03 08:54:08;;;;;;;;;;;;;;;22.48;58.60;101437.53;5005646;28;20311;-80
2023/10/03 08:57:00;;;;;;;;;;;;;;;22.47;58.41;101430.38;5010867;28;19925;-81
2023/10/03 08:59:52;;;;;;;;;;;;;;;22.50;58.86;101432.38;5017551;28;19917;-81
2023/10/03 09:02:49;;;;;;;;;;;;;;;22.75;57.65;101431.91;5015022;28;19917;-82
2023/10/03 09:05:41;;;;;;;;;;;;;;;22.85;57.35;101434.00;5012801;28;19917;-80
2023/10/03 09:08:33;;;;;;;;;;;;;;;22.96;57.25;101435.66;5016390;28;19917;-83
2023/10/03 09:11:28;;;;;;;;;;;;;;;22.97;57.47;101431.72;5014279;28;19921;-81
2023/10/03 09:14:23;;;;;;;;;;;;;;;23.50;55.56;101431.41;5017277;28;19917;-80
2023/10/03 09:17:22;;;;;;;;;;;;;;;23.34;56.49;101433.63;5014963;28;20384;-81
2023/10/03 09:20:21;;;;;;;;;;;;;;;23.42;56.05;101435.25;5012543;28;19925;-80
2023/10/03 09:23:14;;;;;;;;;;;;;;;23.30;56.15;101438.34;5012299;28;19921;-81
2023/10/03 09:26:09;;;;;;;;;;;;;;;23.62;55.73;101439.41;5004601;28;20454;-81
2023/10/03 09:29:01;;;;;;;;;;;;;;;23.77;54.87;101434.78;5015140;28;19921;-80
2023/10/03 09:31:51;;;;;;;;;;;;;;;23.98;54.36;101432.09;5010313;28;19921;-79
2023/10/03 09:34:43;;;;;;;;;;;;;;;23.74;55.77;101428.00;5002179;28;20295;-82
2023/10/03 09:37:32;;;;;;;;;;;;;;;23.70;55.47;101432.75;5010614;28;19922;-80
2023/10/03 09:40:25;;;;;;;;;;;;;;;23.82;55.11;101426.06;4997693;28;19918;-82
2023/10/03 09:43:16;;;;;;;;;;;;;;;24.20;53.92;101422.72;5000102;28;19926;-79
2023/10/03 09:46:08;;;;;;;;;;;;;;;24.81;52.39;101425.66;5002685;28;20387;-80
2023/10/03 09:49:08;;;;;;;;;;;;;;;24.63;52.86;101420.88;4999302;28;19918;-81
2023/10/03 09:52:00;;;;;;;;;;;;;;;24.86;52.37;101422.50;4999600;28;20392;-80
2023/10/03 09:54:57;;;;;;;;;;;;;;;25.02;52.42;101414.59;5003772;28;19925;-78
2023/10/03 09:57:56;;;;;;;;;;;;;;;24.84;52.11;101414.53;5007809;28;20453;-79
2023/10/03 10:00:56;;;;;;;;;;;;;;;25.19;51.56;101413.81;5006894;28;19918;-79
2023/10/03 10:03:46;;;;;;;;;;;;;;;25.50;50.62;101406.59;5007613;28;19917;-79
2023/10/03 10:06:39;;;;;;;;;;;;;;;25.44;52.12;101416.56;5010189;28;19917;-83
2023/10/03 10:09:35;;;;;;;;;;;;;;;25.94;52.46;101411.72;5014191;28;19917;-82
2023/10/03 10:12:25;;;;;;;;;;;;;;;25.87;50.97;101403.38;5006551;28;19921;-85
2023/10/03 10:15:17;;;;;;;;;;;;;;;25.39;51.53;101398.28;5015075;28;19929;-80
2023/10/03 10:18:10;;;;;;;;;;;;;;;25.74;50.90;101405.00;5017342;28;19921;-80
2023/10/03 10:21:19;;;;;;;;;;;;;;;25.76;50.33;101405.38;5020916;28;19921;-81
2023/10/03 10:24:19;;;;;;;;;;;;;;;26.49;52.25;101399.94;5015355;28;19918;-81
2023/10/03 10:27:20;;;;;;;;;;;;;;;25.72;50.78;101396.25;5016533;28;19917;-78
2023/10/03 10:30:13;;;;;;;;;;;;;;;25.64;51.67;101391.91;5016565;28;19918;-76
2023/10/03 10:33:21;;;;;;;;;;;;;;;25.64;51.53;101386.31;5015048;28;19918;-76
2023/10/03 10:36:12;;;;;;;;;;;;;;;26.01;51.62;101389.38;5002024;28;19921;-76
2023/10/03 10:39:03;;;;;;;;;;;;;;;26.46;48.08;101384.03;4998500;28;19977;-76
2023/10/03 10:42:13;;;;;;;;;;;;;;;26.65;46.68;101391.88;5008696;28;19918;-76
2023/10/03 10:45:13;;;;;;;;;;;;;;;26.57;49.03;101381.94;4997072;28;20300;-76
2023/10/03 10:48:05;;;;;;;;;;;;;;;27.21;46.30;101382.28;5000619;28;19933;-76
2023/10/03 10:51:07;;;;;;;;;;;;;;;27.32;45.76;101385.78;4998059;28;20304;-76
2023/10/03 10:54:00;;;;;;;;;;;;;;;27.59;44.57;101366.38;4995077;28;19917;-76
2023/10/03 10:56:59;;;;;;;;;;;;;;;27.36;43.71;101363.41;4998901;28;19922;-74
2023/10/03 10:59:51;;;;;;;;;;;;;;;27.79;43.79;101358.16;5000984;28;19918;-76
2023/10/03 11:02:43;;;;;;;;;;;;;;;27.06;44.56;101348.13;4998274;28;20296;-76
2023/10/03 11:05:52;;;;;;;;;;;;;;;28.08;43.19;101354.59;4996977;28;19918;-76
2023/10/03 11:08:49;;;;;;;;;;;;;;;28.71;41.46;101354.91;5008602;28;19922;-76
2023/10/03 11:11:41;;;;;;;;;;;;;;;29.65;39.85;101341.69;5003748;28;19918;-77
2023/10/03 11:14:33;;;;;;;;;;;;;;;32.72;34.11;101343.31;4996572;28;19918;-76
2023/10/03 11:17:25;;;;;;;;;;;;;;;37.70;25.88;101353.31;4999759;28;19922;-77
2023/10/03 11:20:17;;;;;;;;;;;;;;;40.68;22.04;101356.06;4997953;28;19921;-77
2023/10/03 11:23:16;;;;;;;;;;;;;;;41.11;21.54;101351.09;4995275;28;19921;-77
2023/10/03 11:26:06;;;;;;;;;;;;;;;43.16;18.82;101346.69;4998942;28;19918;-76
2023/10/03 11:28:55;;;;;;;;;;;;;;;43.67;17.91;101338.59;4997939;28;19920;-77
2023/10/03 11:31:45;;;;;;;;;;;;;;;43.87;17.70;101341.06;5000725;28;19918;-76
2023/10/03 11:34:35;;;;;;;;;;;;;;;43.88;17.74;101331.94;5010291;28;19921;-76
2023/10/03 11:37:34;;;;;;;;;;;;;;;43.65;18.07;101336.25;5008213;28;20304;-75
2023/10/03 11:40:34;;;;;;;42.13;17.23;;;;;;;36.17;26.01;101309.22;5000922;28;20406;-74
2023/10/03 11:43:26;;;;;;;29.02;17.73;;;;;;;29.77;36.63;101296.94;4994554;28;20065;-75
2023/10/03 11:46:21;;;;;;;34.72;16.92;;;;;;;27.91;41.34;101290.50;5008032;28;20168;-75
2023/10/03 11:49:15;;;;;;;29.02;16.58;;;;;;;27.25;43.08;101285.28;5003256;28;20061;-76
2023/10/03 11:52:07;;;;;;;33.05;16.02;;;;;;;26.41;45.32;101275.69;4993263;28;20068;-73
2023/10/03 11:55:02;;;;;;;25.92;16.70;;;;;;;25.62;47.70;101280.06;4997090;28;20038;-72
2023/10/03 11:57:54;;;;;;;31.83;16.20;;;;;;;25.52;47.58;101273.31;4995125;28;20042;-76
2023/10/03 12:00:49;;;;;;;26.10;16.85;;;;;;;24.91;49.47;101267.09;5007382;28;20416;-75
2023/10/03 12:03:44;;;;;;;32.38;20.08;;;;;;;25.21;49.16;101265.84;5013367;28;20052;-75
2023/10/03 12:06:38;;;;;;;25.55;15.20;;;;;;;24.88;49.85;101261.53;4995798;28;20039;-74
2023/10/03 12:09:33;;;;;;;25.77;15.85;;;;;;;24.80;50.47;101252.38;5009355;28;20048;-75
2023/10/03 12:12:28;;;;;;;27.02;15.32;;;;;;;24.61;50.48;101239.66;5010111;28;20034;-75
2023/10/03 12:15:20;;;;;;;;;;;;;;;24.61;50.95;101244.44;5004389;28;20046;-76
2023/10/03 12:18:15;;;;;;;33.58;14.57;;;;;;;24.48;51.09;101249.59;5011961;28;19917;-74
2023/10/03 12:21:09;;;;;;;25.25;14.98;;;;;;;24.41;51.41;101241.25;4995892;28;20043;-74
2023/10/03 12:24:04;;;;;;;25.10;15.20;;;;;;;24.32;51.59;101238.09;4992547;28;20505;-75
2023/10/03 12:27:04;;;;;;;23.80;15.30;;;;;;;24.23;52.19;101240.44;5002622;28;20048;-73
2023/10/03 12:29:59;;;;;;;30.05;16.58;;;;;;;24.50;51.54;101241.66;5007981;28;20058;-73
2023/10/03 12:32:54;;;;;;;34.17;18.40;;;;;;;24.57;51.14;101224.97;5010098;28;20444;-74
2023/10/03 12:35:48;;;;;;;25.58;13.80;;;;;;;24.24;51.99;101230.91;5002065;28;20042;-74
2023/10/03 12:38:43;;;;;;;28.55;17.92;;;;;;;25.20;49.66;101225.28;5009521;28;20046;-74
2023/10/03 12:41:35;;;;;;;26.02;13.43;;;;;;;24.77;50.55;101230.91;5008214;28;20061;-75
2023/10/03 12:44:30;;;;;;;36.60;18.08;;;;;;;24.73;50.82;101218.22;5006821;28;20532;-74
2023/10/03 12:47:24;;;;;;;25.70;16.20;;;;;;;24.85;51.16;101215.00;5007385;28;20038;-75
2023/10/03 12:50:19;;;;;;;31.50;17.52;;;;;;;24.89;50.49;101219.38;4993069;28;20421;-74
2023/10/03 12:53:11;;;;;;;28.17;14.60;;;;;;;24.48;51.56;101218.22;4994331;28;20427;-76
2023/10/03 12:56:05;;;;;;;25.10;15.43;;;;;;;24.32;51.98;101221.41;4994468;28;20046;-74
2023/10/03 12:58:58;;;;;;;;;;;;;;;25.01;50.66;101216.19;4992423;28;20057;-75
2023/10/03 13:01:52;;;;;;;26.88;14.35;;;;;;;25.78;48.09;101210.72;4995642;28;19914;-75
2023/10/03 13:04:44;;;;;;;26.05;16.67;;;;;;;25.36;49.35;101206.13;5004678;28;20042;-75
2023/10/03 13:07:37;;;;;;;25.08;15.50;;;;;;;25.17;49.25;101201.03;4996997;28;20042;-74
2023/10/03 13:10:31;;;;;;;24.25;16.42;;;;;;;24.65;50.82;101203.50;5006695;28;20042;-74
2023/10/03 13:13:26;;;;;;;23.33;15.90;;;;;;;24.39;51.81;101203.91;5011644;28;20041;-73
2023/10/03 13:16:20;;;;;;;29.83;18.65;;;;;;;24.42;51.75;101195.59;5015151;28;20045;-75
2023/10/03 13:19:16;;;;;;;22.75;15.18;;;;;;;24.55;51.11;101207.88;5013145;28;20496;-74
2023/10/03 13:22:08;;;;;;;29.48;18.67;;;;;;;24.57;51.10;101194.38;5010295;28;20042;-75
2023/10/03 13:25:03;;;;;;;33.30;20.58;;;;;;;24.59;51.22;101202.31;5014617;28;20046;-75
2023/10/03 13:27:58;;;;;;;31.52;18.15;;;;;;;24.54;51.19;101197.94;5012004;28;20038;-75
2023/10/03 13:30:50;;;;;;;27.45;17.45;;;;;;;24.67;51.07;101188.00;5015691;28;20042;-72
2023/10/03 13:33:44;;;;;;;39.15;20.50;;;;;;;24.98;50.26;101188.38;5012116;28;20037;-74
2023/10/03 13:36:39;;;;;;;29.20;17.65;;;;;;;25.38;49.20;101181.47;4999898;28;20042;-75
2023/10/03 13:39:34;;;;;;;33.67;18.73;;;;;;;25.24;48.99;101185.13;5002437;28;20034;-75
2023/10/03 13:42:29;;;;;;;29.75;19.42;;;;;;;24.49;51.25;101189.22;4995780;28;20501;-75
2023/10/03 13:45:28;;;;;;;31.77;17.92;;;;;;;24.66;50.81;101183.63;4995343;28;20034;-74
2023/10/03 13:48:23;;;;;;;28.52;17.15;;;;;;;24.68;50.99;101191.59;4993345;28;20068;-75
2023/10/03 13:51:17;;;;;;;29.20;17.45;;;;;;;24.90;50.21;101176.47;4994909;28;20038;-76
2023/10/03 13:54:12;;;;;;;33.33;19.00;;;;;;;25.01;48.99;101182.78;4995041;28;20046;-74
2023/10/03 13:57:07;;;;;;;35.90;21.95;;;;;;;25.67;47.29;101179.34;4995916;28;20420;-75
2023/10/03 14:00:02;;;;;;;31.27;17.10;;;;;;;24.94;49.58;101179.25;5011354;28;20408;-75
2023/10/03 14:02:54;;;;;;;32.00;19.42;;;;;;;24.77;50.13;101175.28;5002450;28;20038;-74
2023/10/03 14:05:49;;;;;;;43.75;23.67;;;;;;;25.05;49.23;101180.00;5001368;28;20042;-76
2023/10/03 14:08:41;;;;;;;36.10;19.50;;;;;;;25.02;49.08;101176.03;4998366;28;20034;-74
2023/10/03 14:11:35;;;;;;;45.75;20.60;;;;;;;25.03;49.29;101177.63;4996211;28;20049;-76
2023/10/03 14:14:35;;;;;;;26.98;17.83;;;;;;;24.73;50.14;101177.28;5010083;28;20037;-74
2023/10/03 14:17:29;;;;;;;34.60;18.85;;;;;;;24.53;51.03;101165.00;5005538;28;20041;-75
2023/10/03 14:20:24;;;;;;;40.67;26.90;;;;;;;25.31;48.25;101168.34;5001049;28;20034;-76
2023/10/03 14:23:18;;;;;;;31.13;21.60;;;;;;;25.79;47.35;101170.53;5005041;28;20042;-77
2023/10/03 14:26:11;;;;;;;33.30;21.30;;;;;;;25.82;46.84;101166.91;5005001;28;20456;-76
2023/10/03 14:29:05;;;;;;;39.80;22.38;;;;;;;26.01;46.33;101160.78;5002160;28;20038;-76
2023/10/03 14:32:00;;;;;;;28.20;16.63;;;;;;;25.55;47.80;101156.31;5000354;28;20504;-75